Time;durP1;ratioP1;P1;durP2;ratioP2;P2;SDS_P1;SDS_P2;PMS_P1;PMS_P2;Temp;Humidity;BMP_temperature;BMP_pressure;BME280_temperature;BME280_humidity;BME280_pressure;Samples;Min_cycle;Max_cycle;Signal;HPM_P1;HPM_P2
2022/11/10 00:01:55;;;;;;;1999.90;999.90;;;11.60;99.90;;;;;;5113986;28;20254;-66
2022/11/10 00:04:21;;;;;;;1999.90;999.90;;;11.60;99.90;;;;;;5113928;28;20271;-67
2022/11/10 00:06:47;;;;;;;1999.90;999.90;;;11.60;99.90;;;;;;5113723;28;20241;-67
2022/11/10 00:09:14;;;;;;;1999.90;999.90;;;11.60;99.90;;;;;;5113777;28;20202;-67
2022/11/10 00:11:40;;;;;;;1999.90;999.90;;;11.60;99.90;;;;;;5113587;28;20486;-68
2022/11/10 00:17:05;;;;;;;1999.90;999.90;;;11.50;99.90;;;;;;5113743;28;20394;-66
2022/11/10 00:19:34;;;;;;;1999.90;999.90;;;11.50;99.90;;;;;;5113626;28;20402;-67
2022/11/10 00:22:01;;;;;;;1999.90;999.90;;;11.50;99.90;;;;;;5113650;28;20410;-67
2022/11/10 00:24:27;;;;;;;1999.90;999.90;;;11.60;99.90;;;;;;5113592;28;20418;-67
2022/11/10 00:26:54;;;;;;;1999.90;999.90;;;11.50;99.90;;;;;;5113304;28;20428;-67
2022/11/10 00:29:21;;;;;;;1999.90;999.90;;;11.50;99.90;;;;;;5113274;28;20450;-67
2022/11/10 00:31:47;;;;;;;1999.90;999.90;;;11.50;99.90;;;;;;5113332;28;20885;-67
2022/11/10 00:34:15;;;;;;;1999.90;999.90;;;11.50;99.90;;;;;;5113261;28;20551;-67
2022/11/10 00:36:42;;;;;;;1999.90;999.90;;;11.50;99.90;;;;;;5113139;28;20414;-67
2022/11/10 00:39:08;;;;;;;1999.90;999.90;;;11.50;99.90;;;;;;5113235;28;20392;-67
2022/11/10 00:41:34;;;;;;;1999.90;999.90;;;11.50;99.90;;;;;;5113206;28;20785;-67
2022/11/10 00:44:00;;;;;;;1999.90;999.90;;;11.50;99.90;;;;;;5113034;28;20419;-67
2022/11/10 00:46:25;;;;;;;1999.90;999.90;;;11.50;99.90;;;;;;5113033;28;20578;-67
2022/11/10 00:48:51;;;;;;;1999.90;999.90;;;11.40;99.90;;;;;;5112911;28;20411;-67
2022/11/10 00:51:23;;;;;;;1999.90;999.90;;;11.40;99.90;;;;;;5112950;28;20565;-66
2022/11/10 00:53:49;;;;;;;1999.90;999.90;;;11.40;99.90;;;;;;5112810;28;20197;-67
2022/11/10 00:56:15;;;;;;;1999.90;999.90;;;11.40;99.90;;;;;;5112707;28;20451;-66
2022/11/10 00:58:40;;;;;;;1999.90;999.90;;;11.40;99.90;;;;;;5112933;28;20434;-67
2022/11/10 01:01:06;;;;;;;1999.90;999.90;;;11.40;99.90;;;;;;5112906;28;20176;-67
2022/11/10 01:03:32;;;;;;;1999.90;999.90;;;11.30;99.90;;;;;;5112819;28;20189;-66
2022/11/10 01:06:10;;;;;;;1999.90;999.90;;;11.40;99.90;;;;;;5112654;28;20395;-67
2022/11/10 01:08:36;;;;;;;1999.90;999.90;;;11.40;99.90;;;;;;5112714;28;20490;-67
2022/11/10 01:11:03;;;;;;;1999.90;999.90;;;11.40;99.90;;;;;;5112782;28;20451;-67
2022/11/10 01:13:29;;;;;;;1999.90;999.90;;;11.30;99.90;;;;;;5112336;28;20422;-66
2022/11/10 01:15:55;;;;;;;1999.90;999.90;;;11.30;99.90;;;;;;5112748;28;20909;-66
2022/11/10 01:18:20;;;;;;;1999.90;999.90;;;11.30;99.90;;;;;;5112413;28;20770;-66
2022/11/10 01:20:50;;;;;;;1999.90;999.90;;;11.20;99.90;;;;;;5112689;28;20174;-66
2022/11/10 01:23:16;;;;;;;1999.90;999.90;;;11.20;99.90;;;;;;5112456;28;20161;-67
2022/11/10 01:25:42;;;;;;;1999.90;999.90;;;11.20;99.90;;;;;;5112548;28;20417;-67
2022/11/10 01:28:08;;;;;;;1999.90;999.90;;;11.20;99.90;;;;;;5112188;28;20490;-67
2022/11/10 01:30:33;;;;;;;1999.90;999.90;;;11.20;99.90;;;;;;5112515;28;20170;-67
2022/11/10 01:32:59;;;;;;;1999.90;999.90;;;11.30;99.90;;;;;;5112445;28;20526;-67
2022/11/10 01:35:24;;;;;;;1999.90;999.90;;;11.20;99.90;;;;;;5112430;28;20256;-67
2022/11/10 01:37:53;;;;;;;1999.90;999.90;;;11.20;99.90;;;;;;5112117;28;20173;-67
2022/11/10 01:40:19;;;;;;;1999.90;999.90;;;11.20;99.90;;;;;;5112424;28;20169;-67
2022/11/10 01:42:49;;;;;;;1999.90;999.90;;;11.20;99.90;;;;;;5112363;28;20410;-67
2022/11/10 01:45:24;;;;;;;1999.90;999.90;;;11.20;99.90;;;;;;5112370;28;20178;-67
2022/11/10 01:47:55;;;;;;;1999.90;999.90;;;11.20;99.90;;;;;;5112082;28;20923;-66
2022/11/10 01:50:24;;;;;;;1999.90;999.90;;;11.20;99.90;;;;;;5112212;28;20890;-67
2022/11/10 01:52:54;;;;;;;1999.90;999.90;;;11.20;99.90;;;;;;5112331;28;20394;-67
2022/11/10 01:55:20;;;;;;;1999.90;999.90;;;11.10;99.90;;;;;;5112051;28;20476;-67
2022/11/10 01:57:46;;;;;;;1999.90;999.90;;;11.10;99.90;;;;;;5111935;28;20486;-67
2022/11/10 02:00:12;;;;;;;1999.90;999.90;;;11.20;99.90;;;;;;5112156;28;20214;-67
2022/11/10 02:02:53;;;;;;;1999.90;999.90;;;11.20;99.90;;;;;;5112381;28;20170;-66
2022/11/10 02:05:20;;;;;;;1999.90;999.90;;;11.20;99.90;;;;;;5112071;28;20927;-67
2022/11/10 02:07:46;;;;;;;1999.90;999.90;;;11.20;99.90;;;;;;5111867;28;20419;-67
2022/11/10 02:10:14;;;;;;;1999.90;999.90;;;11.10;99.90;;;;;;5112199;28;20431;-67
2022/11/10 02:12:40;;;;;;;1999.90;999.90;;;11.10;99.90;;;;;;5111913;28;20753;-67
2022/11/10 02:15:09;;;;;;;1999.90;999.90;;;11.10;99.90;;;;;;5111998;28;20513;-67
2022/11/10 02:17:34;;;;;;;1999.90;999.90;;;11.10;99.90;;;;;;5111723;28;20166;-67
2022/11/10 02:20:03;;;;;;;1999.90;999.90;;;11.10;99.90;;;;;;5112073;28;20489;-67
2022/11/10 02:22:32;;;;;;;1999.90;999.90;;;11.00;99.90;;;;;;5112063;28;20653;-67
2022/11/10 02:24:58;;;;;;;1999.90;999.90;;;11.00;99.90;;;;;;5115092;28;20427;-66
2022/11/10 02:27:24;;;;;;;1999.90;999.90;;;11.10;99.90;;;;;;5115622;28;20407;-67
2022/11/10 02:29:50;;;;;;;1999.90;999.90;;;11.10;99.90;;;;;;5115953;28;20414;-67
2022/11/10 02:32:16;;;;;;;1999.90;999.90;;;11.10;99.90;;;;;;5115601;28;20196;-66
2022/11/10 02:34:41;;;;;;;1999.90;999.90;;;11.20;99.90;;;;;;5115557;28;21002;-67
2022/11/10 02:37:09;;;;;;;1999.90;999.90;;;11.20;99.90;;;;;;5115571;28;20234;-67
2022/11/10 02:39:35;;;;;;;1999.90;999.90;;;11.20;99.90;;;;;;5115482;28;20173;-67
2022/11/10 02:42:00;;;;;;;1999.90;999.90;;;11.10;99.90;;;;;;5115594;28;20407;-67
2022/11/10 02:44:26;;;;;;;1999.90;999.90;;;11.10;99.90;;;;;;5115539;28;20455;-67
2022/11/10 02:46:52;;;;;;;1999.90;999.90;;;11.10;99.90;;;;;;5115432;28;20204;-67
2022/11/10 02:49:17;;;;;;;1999.90;999.90;;;11.10;99.90;;;;;;5115583;28;20193;-67
2022/11/10 02:51:43;;;;;;;1999.90;999.90;;;11.10;99.90;;;;;;5115402;28;20196;-67
2022/11/10 02:54:08;;;;;;;1999.90;999.90;;;11.10;99.90;;;;;;5115155;28;20201;-68
2022/11/10 02:56:34;;;;;;;1999.90;999.90;;;11.10;99.90;;;;;;5115108;28;20173;-67
2022/11/10 02:59:00;;;;;;;1999.90;999.90;;;11.00;99.90;;;;;;5115131;28;20187;-67
2022/11/10 03:01:26;;;;;;;1999.90;999.90;;;11.00;99.90;;;;;;5115227;28;20170;-66
2022/11/10 03:03:52;;;;;;;1999.90;999.90;;;11.00;99.90;;;;;;5115098;28;20486;-67
2022/11/10 03:06:17;;;;;;;1999.90;999.90;;;10.90;99.90;;;;;;5115066;28;20536;-67
2022/11/10 03:08:43;;;;;;;1999.90;999.90;;;10.90;99.90;;;;;;5114901;28;20181;-67
2022/11/10 03:11:08;;;;;;;1999.90;999.90;;;10.90;99.90;;;;;;5114923;28;20222;-67
2022/11/10 03:13:34;;;;;;;1999.90;999.90;;;10.80;99.90;;;;;;5114865;28;20686;-67
2022/11/10 03:15:59;;;;;;;1999.90;999.90;;;10.80;99.90;;;;;;5114823;28;20169;-67
2022/11/10 03:18:25;;;;;;;1999.90;999.90;;;10.80;99.90;;;;;;5114773;28;20161;-67
2022/11/10 03:20:51;;;;;;;1999.90;999.90;;;10.80;99.90;;;;;;5114781;28;20646;-67
2022/11/10 03:23:17;;;;;;;1999.90;999.90;;;10.80;99.90;;;;;;5114747;28;20169;-67
2022/11/10 03:25:44;;;;;;;1999.90;999.90;;;10.90;99.90;;;;;;5114757;28;20177;-66
2022/11/10 03:28:10;;;;;;;1999.90;999.90;;;10.70;99.90;;;;;;5114427;28;21005;-67
2022/11/10 03:30:35;;;;;;;1999.90;999.90;;;10.70;99.90;;;;;;5114530;28;20399;-67
2022/11/10 03:33:01;;;;;;;1999.90;999.90;;;10.70;99.90;;;;;;5114607;28;20400;-67
2022/11/10 03:35:26;;;;;;;1999.90;999.90;;;10.80;99.90;;;;;;5114042;28;20185;-66
2022/11/10 03:37:52;;;;;;;1999.90;999.90;;;10.80;99.90;;;;;;5114129;28;20158;-67
2022/11/10 03:40:18;;;;;;;1999.90;999.90;;;10.80;99.90;;;;;;5114436;28;20552;-67
2022/11/10 03:42:44;;;;;;;1999.90;999.90;;;10.80;99.90;;;;;;5114475;28;20168;-66
2022/11/10 03:45:12;;;;;;;1999.90;999.90;;;10.90;99.90;;;;;;5114353;28;20192;-67
2022/11/10 03:47:38;;;;;;;1999.90;999.90;;;10.80;99.90;;;;;;5113936;28;20395;-67
2022/11/10 03:50:04;;;;;;;1999.90;999.90;;;10.80;99.90;;;;;;5114449;28;20425;-67
2022/11/10 03:52:30;;;;;;;1999.90;999.90;;;10.80;99.90;;;;;;5114098;28;21039;-66
2022/11/10 03:54:56;;;;;;;1999.90;999.90;;;10.50;99.90;;;;;;5113978;28;20533;-67
2022/11/10 03:57:21;;;;;;;1999.90;999.90;;;10.80;99.90;;;;;;5113946;28;20162;-67
2022/11/10 03:59:47;;;;;;;1999.90;999.90;;;10.70;99.90;;;;;;5114010;28;20176;-67
2022/11/10 04:02:12;;;;;;;1999.90;999.90;;;10.70;99.90;;;;;;5114099;28;20166;-67
2022/11/10 04:10:07;;;;;;;1999.90;999.90;;;10.70;99.90;;;;;;5113862;28;20494;-67
2022/11/10 04:18:19;;;;;;;1999.90;999.90;;;10.70;99.90;;;;;;5113618;28;20402;-67
2022/11/10 04:20:46;;;;;;;1999.90;999.90;;;10.70;99.90;;;;;;5113650;28;20406;-67
2022/11/10 04:23:27;;;;;;;1999.90;999.90;;;10.70;99.90;;;;;;5113463;28;20491;-66
2022/11/10 04:28:44;;;;;;;1999.90;999.90;;;10.70;99.90;;;;;;5113771;28;20475;-66
2022/11/10 04:31:10;;;;;;;1999.90;999.90;;;10.70;99.90;;;;;;5113468;28;20461;-66
2022/11/10 04:33:38;;;;;;;1999.90;999.90;;;10.70;99.90;;;;;;5113492;28;20408;-66
2022/11/10 04:36:04;;;;;;;1999.90;999.90;;;10.70;99.90;;;;;;5113300;28;20399;-67
2022/11/10 04:38:30;;;;;;;1999.90;999.90;;;10.70;99.90;;;;;;5113007;28;20452;-67
2022/11/10 04:40:55;;;;;;;1999.90;999.90;;;10.70;99.90;;;;;;5113296;28;20915;-67
2022/11/10 04:43:21;;;;;;;1999.90;999.90;;;10.60;99.90;;;;;;5113411;28;20197;-67
2022/11/10 04:45:47;;;;;;;1999.90;999.90;;;10.60;99.90;;;;;;5113106;28;20165;-67
2022/11/10 04:48:12;;;;;;;1999.90;999.90;;;10.60;99.90;;;;;;5112030;28;20164;-67
2022/11/10 04:50:38;;;;;;;1999.90;999.90;;;10.60;99.90;;;;;;5112957;28;20248;-67
2022/11/10 04:53:04;;;;;;;1999.90;999.90;;;10.60;99.90;;;;;;5113048;28;20184;-67
2022/11/10 04:55:29;;;;;;;1999.90;999.90;;;10.60;99.90;;;;;;5112836;28;20584;-67
2022/11/10 04:57:55;;;;;;;1999.90;999.90;;;10.60;99.90;;;;;;5112684;28;20158;-67
2022/11/10 05:00:20;;;;;;;1999.90;999.90;;;10.60;99.90;;;;;;5112976;28;20633;-67
2022/11/10 05:02:46;;;;;;;1999.90;999.90;;;10.60;99.90;;;;;;5112895;28;20180;-67
2022/11/10 05:05:12;;;;;;;1999.90;999.90;;;10.70;99.90;;;;;;5112768;28;20854;-67
2022/11/10 05:07:37;;;;;;;1999.90;999.90;;;10.60;99.90;;;;;;5112420;28;20558;-66
2022/11/10 05:10:03;;;;;;;1999.90;999.90;;;10.60;99.90;;;;;;5112763;28;20180;-67
2022/11/10 05:12:29;;;;;;;1999.90;999.90;;;10.60;99.90;;;;;;5112617;28;20677;-67
2022/11/10 05:14:55;;;;;;;1999.90;999.90;;;10.60;99.90;;;;;;5112622;28;20461;-67
2022/11/10 05:17:21;;;;;;;1999.90;999.90;;;10.60;99.90;;;;;;5112470;28;20185;-67
2022/11/10 05:19:47;;;;;;;1999.90;999.90;;;10.60;99.90;;;;;;5112590;28;20712;-67
2022/11/10 05:22:12;;;;;;;1999.90;999.90;;;10.50;99.90;;;;;;5112438;28;20485;-67
2022/11/10 05:24:38;;;;;;;1999.90;999.90;;;10.50;99.90;;;;;;5112475;28;20192;-67
2022/11/10 05:27:05;;;;;;;1999.90;999.90;;;10.50;99.90;;;;;;5112357;28;20911;-67
2022/11/10 05:29:30;;;;;;;1999.90;999.90;;;10.60;99.90;;;;;;5112560;28;20168;-67
2022/11/10 05:31:56;;;;;;;1999.90;999.90;;;10.60;99.90;;;;;;5112493;28;20453;-67
2022/11/10 05:34:22;;;;;;;1999.90;999.90;;;10.60;99.90;;;;;;5112392;28;20212;-67
2022/11/10 05:36:47;;;;;;;1999.90;999.90;;;10.60;99.90;;;;;;5112096;28;20220;-67
2022/11/10 05:39:13;;;;;;;1999.90;999.90;;;10.50;99.90;;;;;;5112403;28;20227;-67
2022/11/10 05:41:39;;;;;;;1999.90;999.90;;;10.60;99.90;;;;;;5112389;28;20168;-67
2022/11/10 05:44:05;;;;;;;1999.90;999.90;;;10.50;99.90;;;;;;5112487;28;20196;-67
2022/11/10 05:46:30;;;;;;;1999.90;999.90;;;10.50;99.90;;;;;;5112413;28;20782;-67
2022/11/10 05:48:56;;;;;;;1999.90;999.90;;;10.50;99.90;;;;;;5112067;28;20180;-67
2022/11/10 05:51:22;;;;;;;1999.90;999.90;;;10.50;99.90;;;;;;5112175;28;20199;-67
2022/11/10 05:53:47;;;;;;;1999.90;999.90;;;10.60;99.90;;;;;;5112095;28;20208;-67
2022/11/10 05:56:13;;;;;;;1999.90;999.90;;;10.50;99.90;;;;;;5112123;28;20173;-67
2022/11/10 05:58:38;;;;;;;1999.90;999.90;;;10.40;99.90;;;;;;5113209;28;20176;-67
2022/11/10 06:01:04;;;;;;;1999.90;999.90;;;10.50;99.90;;;;;;5098051;28;20206;-67
2022/11/10 06:03:30;;;;;;;1999.90;999.90;;;10.50;99.90;;;;;;5116252;28;20186;-67
2022/11/10 06:05:56;;;;;;;1999.90;999.90;;;10.40;99.90;;;;;;5116039;28;20199;-66
2022/11/10 06:08:22;;;;;;;1999.90;999.90;;;10.30;99.90;;;;;;5116077;28;20411;-67
2022/11/10 06:10:47;;;;;;;1999.90;999.90;;;10.30;99.90;;;;;;5116294;28;20212;-67
2022/11/10 06:13:13;;;;;;;1999.90;999.90;;;10.30;99.90;;;;;;5116140;28;20173;-67
2022/11/10 06:15:39;;;;;;;1999.90;999.90;;;10.20;99.90;;;;;;5116035;28;20633;-66
2022/11/10 06:18:05;;;;;;;1999.90;999.90;;;10.40;99.90;;;;;;5115807;28;20193;-67
2022/11/10 06:20:31;;;;;;;1999.90;999.90;;;10.30;99.90;;;;;;5115860;28;20405;-67
2022/11/10 06:23:05;;;;;;;1999.90;999.90;;;10.40;99.90;;;;;;5115625;28;20489;-67
2022/11/10 06:25:32;;;;;;;1999.90;999.90;;;10.30;99.90;;;;;;5115834;28;20188;-67
2022/11/10 06:27:58;;;;;;;1999.90;999.90;;;10.30;99.90;;;;;;5115567;28;20808;-67
2022/11/10 06:30:25;;;;;;;1999.90;999.90;;;10.40;99.90;;;;;;5115789;28;20402;-66
2022/11/10 06:32:51;;;;;;;1999.90;999.90;;;10.30;99.90;;;;;;5115629;28;20419;-66
2022/11/10 06:35:16;;;;;;;1999.90;999.90;;;10.40;99.90;;;;;;5115871;28;20648;-67
2022/11/10 06:37:42;;;;;;;1999.90;999.90;;;10.40;99.90;;;;;;5115372;28;20180;-67
2022/11/10 06:40:10;;;;;;;1999.90;999.90;;;10.50;99.90;;;;;;5115620;28;20220;-67
2022/11/10 06:42:35;;;;;;;1999.90;999.90;;;10.50;99.90;;;;;;5115630;28;20178;-67
2022/11/10 06:45:02;;;;;;;1999.90;999.90;;;10.60;99.90;;;;;;5115412;28;20441;-67
2022/11/10 06:47:28;;;;;;;1999.90;999.90;;;10.50;99.90;;;;;;5115195;28;20778;-67
2022/11/10 06:49:54;;;;;;;1999.90;999.90;;;10.40;99.90;;;;;;5115275;28;20471;-67
2022/11/10 06:52:20;;;;;;;1999.90;999.90;;;10.30;99.90;;;;;;5115425;28;20492;-66
2022/11/10 06:54:45;;;;;;;1999.90;999.90;;;10.50;99.90;;;;;;5115306;28;20444;-67
2022/11/10 06:57:11;;;;;;;1999.90;999.90;;;10.40;99.90;;;;;;5115145;28;20513;-66
2022/11/10 06:59:36;;;;;;;1999.90;999.90;;;10.40;99.90;;;;;;5115244;28;20177;-67
2022/11/10 07:02:02;;;;;;;1999.90;999.90;;;10.40;99.90;;;;;;5115171;28;20273;-67
2022/11/10 07:04:28;;;;;;;1999.90;999.90;;;10.40;99.90;;;;;;5115064;28;20197;-67
2022/11/10 07:06:53;;;;;;;1999.90;999.90;;;10.50;99.90;;;;;;5114924;28;20175;-67
2022/11/10 07:09:20;;;;;;;1999.90;999.90;;;10.50;99.90;;;;;;5115022;28;20173;-67
2022/11/10 07:11:45;;;;;;;1999.90;999.90;;;10.50;99.90;;;;;;5114003;28;20192;-67
2022/11/10 07:14:11;;;;;;;1999.90;999.90;;;10.60;99.90;;;;;;5114962;28;20425;-67
2022/11/10 07:16:36;;;;;;;1999.90;999.90;;;10.60;99.90;;;;;;5114749;28;20257;-66
2022/11/10 07:19:02;;;;;;;1999.90;999.90;;;10.60;99.90;;;;;;5114907;28;20697;-67
2022/11/10 07:21:28;;;;;;;1999.90;999.90;;;10.60;99.90;;;;;;5115160;28;20168;-68
2022/11/10 07:23:53;;;;;;;1999.90;999.90;;;10.60;99.90;;;;;;5114703;28;20189;-67
2022/11/10 07:26:19;;;;;;;1999.90;999.90;;;10.60;99.90;;;;;;5114681;28;20174;-67
2022/11/10 07:28:45;;;;;;;1999.90;999.90;;;10.60;99.90;;;;;;5114722;28;20180;-67
2022/11/10 07:31:10;;;;;;;1999.90;999.90;;;10.70;99.90;;;;;;5114619;28;20199;-67
2022/11/10 07:33:36;;;;;;;1999.90;999.90;;;10.80;99.90;;;;;;5114529;28;20209;-67
2022/11/10 07:36:03;;;;;;;1999.90;999.90;;;10.80;99.90;;;;;;5114416;28;20244;-67
2022/11/10 07:38:28;;;;;;;1999.90;999.90;;;10.80;99.90;;;;;;5114347;28;20172;-67
2022/11/10 07:40:55;;;;;;;1999.90;999.90;;;10.90;99.90;;;;;;5114521;28;20422;-66
2022/11/10 07:43:22;;;;;;;1999.90;999.90;;;10.80;99.90;;;;;;5114536;28;20187;-67
2022/11/10 07:45:52;;;;;;;1999.90;999.90;;;10.90;99.90;;;;;;5114325;28;20399;-67
2022/11/10 07:48:17;;;;;;;1999.90;999.90;;;10.90;99.90;;;;;;5114166;28;20923;-67
2022/11/10 07:50:44;;;;;;;1999.90;999.90;;;10.90;99.90;;;;;;5114209;28;20404;-67
2022/11/10 07:53:12;;;;;;;1999.90;999.90;;;11.00;99.90;;;;;;5114156;28;20403;-68
2022/11/10 07:55:39;;;;;;;1999.90;999.90;;;11.10;99.90;;;;;;5114154;28;20769;-67
2022/11/10 07:58:06;;;;;;;1999.90;999.90;;;11.10;99.90;;;;;;5113860;28;20924;-66
2022/11/10 08:00:33;;;;;;;1999.90;999.90;;;11.20;99.90;;;;;;5114027;28;20395;-67
2022/11/10 08:03:04;;;;;;;1999.90;999.90;;;11.10;99.90;;;;;;5114099;28;20443;-66
2022/11/10 08:05:30;;;;;;;1999.90;999.90;;;11.20;99.90;;;;;;5113982;28;20830;-67
2022/11/10 08:07:56;;;;;;;1999.90;999.90;;;11.20;99.90;;;;;;5113729;28;20418;-67
2022/11/10 08:10:21;;;;;;;1999.90;999.90;;;11.30;99.90;;;;;;5113960;28;20396;-67
2022/11/10 08:12:54;;;;;;;1999.90;999.90;;;11.30;99.90;;;;;;5113743;28;20574;-67
2022/11/10 08:15:19;;;;;;;1999.90;999.90;;;11.40;99.90;;;;;;5113793;28;20264;-67
2022/11/10 08:17:45;;;;;;;1999.90;999.90;;;11.50;99.90;;;;;;5113521;28;20825;-67
2022/11/10 08:20:11;;;;;;;1999.90;999.90;;;11.50;99.90;;;;;;5113785;28;20173;-67
2022/11/10 08:22:36;;;;;;;1999.90;999.90;;;11.50;99.90;;;;;;5113583;28;20191;-67
2022/11/10 08:25:02;;;;;;;1999.90;999.90;;;11.60;99.90;;;;;;5113532;28;20189;-67
2022/11/10 08:27:27;;;;;;;1999.90;999.90;;;11.70;99.90;;;;;;5113379;28;20171;-67
2022/11/10 08:29:53;;;;;;;1999.90;999.90;;;11.70;99.90;;;;;;5113373;28;20177;-67
2022/11/10 08:32:20;;;;;;;1999.90;999.90;;;11.80;99.90;;;;;;5113446;28;20202;-67
2022/11/10 08:34:45;;;;;;;1999.90;999.90;;;11.80;99.90;;;;;;5113397;28;20194;-67
2022/11/10 08:37:11;;;;;;;1999.90;999.90;;;11.90;99.90;;;;;;5113110;28;20403;-67
2022/11/10 08:39:36;;;;;;;1999.90;999.90;;;11.90;99.90;;;;;;5113252;28;20596;-67
2022/11/10 08:42:02;;;;;;;1999.90;999.90;;;12.00;99.90;;;;;;5113458;28;20178;-67
2022/11/10 08:44:27;;;;;;;1999.90;999.90;;;12.00;99.90;;;;;;5113236;28;20674;-67
2022/11/10 08:46:53;;;;;;;1999.90;999.90;;;12.10;99.90;;;;;;5113047;28;20791;-67
2022/11/10 08:49:19;;;;;;;1999.90;999.90;;;12.10;99.90;;;;;;5113118;28;20176;-68
2022/11/10 08:51:44;;;;;;;1999.90;999.90;;;12.20;99.90;;;;;;5113182;28;20589;-67
2022/11/10 08:54:10;;;;;;;1999.90;999.90;;;12.30;99.90;;;;;;5113403;28;20220;-67
2022/11/10 08:56:35;;;;;;;1999.90;999.90;;;12.30;99.90;;;;;;5113067;28;20163;-68
2022/11/10 08:59:01;;;;;;;1999.90;999.90;;;12.30;99.90;;;;;;5113233;28;20237;-67
2022/11/10 09:01:26;;;;;;;1999.90;999.90;;;12.40;99.90;;;;;;5113134;28;20643;-67
2022/11/10 09:03:52;;;;;;;1999.90;999.90;;;12.40;99.90;;;;;;5113348;28;20197;-67
2022/11/10 09:06:18;;;;;;;1999.90;999.90;;;12.50;99.90;;;;;;5112955;28;20171;-67
2022/11/10 09:08:43;;;;;;;1999.90;999.90;;;12.50;99.90;;;;;;5112660;28;20191;-67
2022/11/10 09:11:09;;;;;;;1999.90;999.90;;;12.60;99.90;;;;;;5112772;28;20194;-66
2022/11/10 09:13:35;;;;;;;1999.90;999.90;;;12.60;99.90;;;;;;5112887;28;20207;-67
2022/11/10 09:16:02;;;;;;;1999.90;999.90;;;12.70;99.90;;;;;;5112659;28;20158;-67
2022/11/10 09:18:28;;;;;;;1999.90;999.90;;;12.70;99.90;;;;;;5112770;28;20168;-67
2022/11/10 09:20:54;;;;;;;1999.90;999.90;;;12.80;99.90;;;;;;5112735;28;20417;-67
2022/11/10 09:23:20;;;;;;;1999.90;999.90;;;12.80;99.90;;;;;;5112595;28;20407;-67
2022/11/10 09:25:52;;;;;;;1999.90;999.90;;;12.90;99.90;;;;;;5113003;28;20175;-66
2022/11/10 09:28:19;;;;;;;1999.90;999.90;;;13.00;99.90;;;;;;5112813;28;21000;-67
2022/11/10 09:30:49;;;;;;;1999.90;999.90;;;13.00;99.90;;;;;;5112500;28;20416;-67
2022/11/10 09:33:16;;;;;;;1999.90;999.90;;;13.10;99.90;;;;;;5112063;28;20910;-67
2022/11/10 09:35:41;;;;;;;1999.90;999.90;;;13.20;99.90;;;;;;5112551;28;20920;-67
2022/11/10 09:38:07;;;;;;;1999.90;999.90;;;13.30;99.90;;;;;;5112091;28;20404;-68
2022/11/10 09:40:56;;;;;;;1999.90;999.90;;;13.30;99.90;;;;;;5112262;28;20170;-68
2022/11/10 09:43:37;;;;;;;1999.90;999.90;;;13.50;99.90;;;;;;5112323;28;20395;-67
2022/11/10 09:46:21;;;;;;;1999.90;999.90;;;13.50;99.90;;;;;;5112305;28;20449;-67
2022/11/10 09:48:53;;;;;;;1999.90;999.90;;;13.60;99.90;;;;;;5112223;28;20487;-67
2022/11/10 09:51:24;;;;;;;1999.90;999.90;;;13.60;99.90;;;;;;5112203;28;20456;-67
2022/11/10 09:53:55;;;;;;;1999.90;999.90;;;13.80;99.90;;;;;;5112120;28;20532;-68
2022/11/10 09:56:32;;;;;;;1999.90;999.90;;;13.80;99.90;;;;;;5112194;28;20398;-67
2022/11/10 09:58:58;;;;;;;1999.90;999.90;;;13.90;99.90;;;;;;5112066;28;20432;-68
2022/11/10 10:01:36;;;;;;;1999.90;999.90;;;14.00;99.90;;;;;;5112033;28;20441;-67
2022/11/10 10:04:12;;;;;;;1999.90;999.90;;;14.10;99.90;;;;;;5112267;28;20925;-67
2022/11/10 10:07:00;;;;;;;1999.90;999.90;;;14.10;99.90;;;;;;5111914;28;20444;-67
2022/11/10 10:09:35;;;;;;;1999.90;999.90;;;14.20;99.90;;;;;;5112225;28;20395;-67
2022/11/10 10:12:14;;;;;;;1999.90;999.90;;;14.30;99.90;;;;;;5112466;28;20803;-67
2022/11/10 10:14:43;;;;;;;1999.90;999.90;;;14.40;99.90;;;;;;5112550;28;20463;-67
2022/11/10 10:17:20;;;;;;;1999.90;999.90;;;14.40;99.90;;;;;;5111867;28;20387;-67
2022/11/10 10:20:18;;;;;;;1999.90;999.90;;;14.50;99.90;;;;;;5112174;28;20389;-67
2022/11/10 10:23:25;;;;;;;1999.90;999.90;;;14.60;99.90;;;;;;5109475;28;21051;-67
2022/11/10 10:25:52;;;;;;;1999.90;999.90;;;14.60;99.90;;;;;;5049030;28;20881;-67
2022/11/10 10:28:17;;;;;;;1999.90;999.90;;;14.70;99.90;;;;;;5099036;28;20412;-67
2022/11/10 10:30:44;;;;;;;1999.90;999.90;;;14.80;99.90;;;;;;5110742;28;20938;-67
2022/11/10 10:33:21;;;;;;;1999.90;999.90;;;14.80;99.90;;;;;;5109634;28;20479;-68
2022/11/10 10:35:48;;;;;;;1999.90;999.90;;;14.90;99.90;;;;;;5111379;28;20212;-67
2022/11/10 10:38:35;;;;;;;1999.90;999.90;;;14.90;99.90;;;;;;5111419;28;20408;-67
2022/11/10 10:41:25;;;;;;;1999.90;999.90;;;14.90;99.90;;;;;;5111524;28;20421;-67
2022/11/10 10:43:55;;;;;;;1999.90;999.90;;;14.90;99.90;;;;;;5102067;28;20459;-67
2022/11/10 10:46:25;;;;;;;1999.90;999.90;;;15.00;99.90;;;;;;5112728;28;20405;-67
2022/11/10 10:49:06;;;;;;;1999.90;999.90;;;15.00;99.90;;;;;;5114696;28;20482;-67
2022/11/10 10:51:32;;;;;;;1999.90;999.90;;;15.10;99.90;;;;;;5114611;28;20447;-68
2022/11/10 10:53:57;;;;;;;1999.90;999.90;;;15.10;99.90;;;;;;5114865;28;20947;-67
2022/11/10 10:56:32;;;;;;;1999.90;999.90;;;15.10;99.90;;;;;;5115095;28;20165;-67
2022/11/10 10:59:01;;;;;;;1999.90;999.90;;;15.10;99.90;;;;;;5114178;28;20658;-67
2022/11/10 11:01:36;;;;;;;1999.90;999.90;;;15.20;99.90;;;;;;5114933;28;20421;-67
2022/11/10 11:04:22;;;;;;;1999.90;999.90;;;15.30;99.90;;;;;;5114376;28;20518;-67
2022/11/10 11:06:58;;;;;;;1999.90;999.90;;;15.30;99.90;;;;;;5095714;28;20811;-67
2022/11/10 11:09:30;;;;;;;1999.90;999.90;;;15.30;99.90;;;;;;5114592;28;20470;-67
2022/11/10 11:12:02;;;;;;;1999.90;999.90;;;15.50;99.90;;;;;;5114214;28;20466;-68
2022/11/10 11:14:29;;;;;;;1999.90;999.90;;;15.70;99.90;;;;;;5113805;28;20516;-67
2022/11/10 11:16:59;;;;;;;1999.90;999.90;;;16.10;99.90;;;;;;5114496;28;20405;-68
2022/11/10 11:19:34;;;;;;;1999.90;999.90;;;16.50;99.90;;;;;;5114612;28;20413;-67
2022/11/10 11:22:08;;;;;;;1999.90;999.90;;;17.00;99.90;;;;;;5115091;28;20444;-66
2022/11/10 11:24:43;;;;;;;1999.90;999.90;;;17.30;99.90;;;;;;5114436;28;20433;-67
2022/11/10 11:27:17;;;;;;;1999.90;999.90;;;17.90;99.90;;;;;;5113559;28;20395;-68
2022/11/10 11:29:56;;;;;;;1999.90;999.90;;;18.40;99.90;;;;;;5114143;28;20907;-67
2022/11/10 11:32:27;;;;;;;1999.90;999.90;;;18.80;99.90;;;;;;5114400;28;20455;-67
2022/11/10 11:35:32;;;;;;;1999.90;999.90;;;19.20;99.90;;;;;;5113805;28;20416;-67
2022/11/10 11:38:11;;;;;;;1999.90;999.90;;;19.80;99.90;;;;;;5113541;28;20442;-68
2022/11/10 11:40:55;;;;;;;1999.90;999.90;;;20.00;99.90;;;;;;5114212;28;20405;-67
2022/11/10 11:43:59;;;;;;;1999.90;999.90;;;20.10;99.90;;;;;;5113444;28;20454;-67
2022/11/10 11:46:29;;;;;;;1999.90;999.90;;;20.20;99.90;;;;;;5090019;28;20417;-67
2022/11/10 11:49:31;;;;;;;1999.90;999.90;;;20.30;99.90;;;;;;5112926;28;20426;-67
2022/11/10 11:52:37;;;;;;;1999.90;999.90;;;20.40;99.90;;;;;;5114052;28;20453;-67
2022/11/10 11:55:36;;;;;;;1999.90;999.90;;;20.50;99.90;;;;;;5090467;28;20472;-67
2022/11/10 11:58:22;;;;;;;1999.90;999.90;;;20.70;99.90;;;;;;5111961;28;20925;-67
2022/11/10 12:00:56;;;;;;;1999.90;999.90;;;20.80;99.70;;;;;;5113528;28;20424;-67
2022/11/10 12:03:46;;;;;;;1999.90;999.90;;;20.90;99.20;;;;;;5113665;28;20486;-67
2022/11/10 12:06:44;;;;;;;1999.90;999.90;;;21.00;96.80;;;;;;5113479;28;20438;-67
2022/11/10 12:09:34;;;;;;;1999.90;999.90;;;21.00;96.90;;;;;;5078472;28;20420;-67
2022/11/10 12:12:11;;;;;;;1999.90;999.90;;;21.10;93.00;;;;;;5113063;28;20537;-68
2022/11/10 12:15:07;;;;;;;1999.90;999.90;;;21.40;91.10;;;;;;5113350;28;20411;-67
2022/11/10 12:17:46;;;;;;;1999.90;999.90;;;21.50;90.00;;;;;;5112911;28;20394;-68
2022/11/10 12:20:22;;;;;;;1999.90;999.90;;;21.80;85.90;;;;;;5112934;28;20403;-67
2022/11/10 12:23:07;;;;;;;1999.90;999.90;;;21.90;81.10;;;;;;5113494;28;20495;-67
2022/11/10 12:25:55;;;;;;;1999.90;999.90;;;21.90;78.50;;;;;;5113323;28;20925;-67